Time;durP1;ratioP1;P1;durP2;ratioP2;P2;SDS_P1;SDS_P2;PMS_P1;PMS_P2;Temp;Humidity;BMP_temperature;BMP_pressure;BME280_temperature;BME280_humidity;BME280_pressure;Samples;Min_cycle;Max_cycle;Signal;HPM_P1;HPM_P2
2022/11/18 00:00:46;;;;;;;34.72;23.48;;;;;;;11.00;75.70;93616.13;4227027;28;20463;-56
2022/11/18 00:02:48;;;;;;;29.20;19.00;;;;;;;11.00;75.41;93610.09;4227139;28;20201;-52
2022/11/18 00:04:49;;;;;;;30.10;20.63;;;;;;;10.97;75.56;93608.66;4227299;28;20075;-56
2022/11/18 00:06:51;;;;;;;31.27;20.55;;;;;;;10.96;75.87;93611.47;4225344;28;20768;-56
2022/11/18 00:08:53;;;;;;;32.92;22.25;;;;;;;10.94;75.47;93610.84;4213980;28;20242;-58
2022/11/18 00:10:55;;;;;;;31.90;19.65;;;;;;;10.93;74.97;93617.91;4226503;28;20130;-55
2022/11/18 00:15:17;;;;;;;30.38;19.35;;;;;;;10.93;75.41;93614.47;4227292;28;20074;-52
2022/11/18 00:17:19;;;;;;;29.08;17.38;;;;;;;10.96;75.59;93614.09;4229950;28;20043;-52
2022/11/18 00:19:24;;;;;;;26.23;15.60;;;;;;;10.98;75.43;93612.09;4230283;28;20561;-55
2022/11/18 00:21:25;;;;;;;25.90;17.88;;;;;;;10.96;75.26;93614.88;4230296;28;20047;-54
2022/11/18 00:23:28;;;;;;;27.40;19.17;;;;;;;10.92;75.10;93612.84;4228032;28;20086;-56
2022/11/18 00:25:29;;;;;;;32.40;21.48;;;;;;;10.90;75.70;93613.00;4229748;28;20052;-58
2022/11/18 00:27:31;;;;;;;30.88;22.80;;;;;;;10.82;75.17;93613.16;4224274;28;20044;-53
2022/11/18 00:29:33;;;;;;;27.50;18.77;;;;;;;10.62;75.96;93613.75;4225557;28;20051;-54
2022/11/18 00:31:35;;;;;;;24.30;17.15;;;;;;;10.57;76.83;93612.69;4229587;27;20575;-54
2022/11/18 00:33:37;;;;;;;27.73;17.83;;;;;;;10.60;76.82;93621.00;4229429;28;20058;-57
2022/11/18 00:35:38;;;;;;;28.80;18.05;;;;;;;10.66;76.76;93615.00;4229866;28;20048;-56
2022/11/18 00:37:40;;;;;;;28.50;18.63;;;;;;;10.66;76.02;93611.56;4228202;27;20086;-56
2022/11/18 00:39:42;;;;;;;32.03;18.98;;;;;;;10.69;76.01;93610.38;4229882;28;20120;-55
2022/11/18 00:44:04;;;;;;;29.13;19.65;;;;;;;10.60;76.08;93613.16;4229737;28;20457;-53
2022/11/18 00:46:11;;;;;;;30.45;19.08;;;;;;;10.22;77.21;93617.72;4229785;28;20091;-54
2022/11/18 00:48:13;;;;;;;29.73;18.17;;;;;;;10.19;77.77;93618.88;4229423;28;20457;-55
2022/11/18 00:50:15;;;;;;;31.13;18.70;;;;;;;10.28;77.79;93618.78;4223783;28;20125;-50
2022/11/18 00:52:16;;;;;;;29.48;18.25;;;;;;;10.33;77.93;93619.09;4227768;28;20083;-56
2022/11/18 00:54:18;;;;;;;30.75;19.95;;;;;;;10.41;77.43;93618.94;4229565;28;20071;-55
2022/11/18 00:56:20;;;;;;;31.00;18.17;;;;;;;10.43;77.06;93615.19;4229521;28;20128;-54
2022/11/18 00:58:21;;;;;;;26.23;17.98;;;;;;;10.49;77.22;93611.00;4229473;28;20046;-55
2022/11/18 01:00:23;;;;;;;27.95;19.17;;;;;;;10.54;76.56;93624.34;4229767;28;20132;-55
2022/11/18 01:02:25;;;;;;;26.95;17.88;;;;;;;10.56;76.05;93614.50;4228805;28;20053;-56
2022/11/18 01:04:26;;;;;;;26.10;18.23;;;;;;;10.58;75.92;93609.06;4229576;28;20050;-54
2022/11/18 01:06:29;;;;;;;30.33;18.85;;;;;;;10.61;75.72;93609.53;4229635;28;20075;-55
2022/11/18 01:08:30;;;;;;;31.17;19.27;;;;;;;10.64;75.46;93611.75;4227610;28;20051;-56
2022/11/18 01:10:33;;;;;;;30.23;19.63;;;;;;;10.68;75.49;93611.41;4228219;28;20108;-58
2022/11/18 01:14:57;;;;;;;34.78;21.23;;;;;;;10.73;75.12;93609.03;4229779;28;20048;-57
2022/11/18 01:16:59;;;;;;;;;;;;;;;10.71;74.89;93611.84;4228456;28;20067;-58
2022/11/18 01:19:00;;;;;;;36.35;21.70;;;;;;;10.71;74.68;93611.00;4228645;28;19934;-55
2022/11/18 01:21:03;;;;;;;32.90;21.58;;;;;;;10.70;75.09;93619.88;4228763;28;20452;-52
2022/11/18 01:23:04;;;;;;;35.78;22.88;;;;;;;10.68;74.60;93617.44;4227472;28;20134;-55
2022/11/18 01:25:07;;;;;;;39.55;24.50;;;;;;;10.68;74.53;93616.63;4228615;28;20047;-58
2022/11/18 01:27:08;;;;;;;31.05;22.02;;;;;;;10.66;74.32;93609.75;4228167;28;20082;-57
2022/11/18 01:29:10;;;;;;;31.63;19.63;;;;;;;10.58;74.42;93614.31;4228944;28;20073;-54
2022/11/18 01:31:14;;;;;;;25.52;15.25;;;;;;;10.59;74.96;93618.56;4228887;28;20078;-55
2022/11/18 01:33:16;;;;;;;25.58;16.63;;;;;;;10.60;74.81;93614.94;4228388;28;20052;-54
2022/11/18 01:35:18;;;;;;;25.38;16.15;;;;;;;10.60;74.94;93618.38;4228426;28;20043;-54
2022/11/18 01:37:19;;;;;;;22.55;14.27;;;;;;;10.62;75.25;93623.41;4226975;28;20052;-55
2022/11/18 01:39:21;;;;;;;19.73;14.38;;;;;;;10.61;74.82;93614.75;4228918;28;20054;-57
2022/11/18 01:41:25;;;;;;;30.33;18.65;;;;;;;10.59;75.27;93615.94;4223793;28;20481;-58
2022/11/18 01:43:48;;;;;;;30.38;19.40;;;;;;;10.52;74.97;93613.25;4211561;28;20051;-54
2022/11/18 02:03:26;;;;;;;27.17;19.55;;;;;;;9.77;77.83;93612.53;4240332;27;20359;-51
2022/11/18 02:05:28;;;;;;;24.20;17.88;;;;;;;9.83;78.44;93611.00;4228223;27;20078;-54
2022/11/18 02:07:33;;;;;;;27.35;17.05;;;;;;;9.94;77.63;93613.16;3515452;27;10000725;-53
2022/11/18 02:09:36;;;;;;;24.50;16.80;;;;;;;10.01;77.40;93615.84;4224773;28;20174;-53
2022/11/18 02:11:49;;;;;;;30.80;16.30;;;;;;;10.07;77.10;93617.75;4212129;28;20083;-55
2022/11/18 02:13:51;;;;;;;24.27;16.67;;;;;;;10.11;76.98;93613.78;4227534;27;20048;-56
2022/11/18 02:16:14;;;;;;;26.42;18.20;;;;;;;10.19;76.06;93618.88;3881501;27;10000306;-55
2022/11/18 02:18:34;;;;;;;24.38;16.30;;;;;;;10.19;76.40;93618.88;4237358;27;20070;-55
2022/11/18 02:20:39;;;;;;;23.00;16.02;;;;;;;10.19;75.78;93611.03;4225685;27;20441;-50
2022/11/18 02:22:58;;;;;;;26.35;17.65;;;;;;;10.18;76.13;93616.47;4235579;27;20210;-52
2022/11/18 02:25:09;;;;;;;25.17;16.73;;;;;;;10.22;75.93;93621.16;3876236;27;10000344;-53
2022/11/18 02:27:19;;;;;;;26.35;16.33;;;;;;;10.25;75.56;93623.38;4215808;28;20183;-51
2022/11/18 02:29:27;;;;;;;26.33;15.90;;;;;;;10.27;75.92;93619.78;4207099;28;20048;-52
2022/11/18 02:32:15;;;;;;;24.77;16.60;;;;;;;10.26;75.02;93611.13;4218001;28;20044;-54
2022/11/18 02:34:27;;;;;;;21.77;15.45;;;;;;;10.29;75.31;93604.72;4168078;28;20069;-52
2022/11/18 02:36:41;;;;;;;24.63;15.13;;;;;;;10.29;75.29;93602.94;4148011;28;20080;-56
2022/11/18 02:38:45;;;;;;;23.65;15.73;;;;;;;10.27;74.95;93604.09;4166363;28;20091;-55
2022/11/18 02:40:50;;;;;;;21.27;15.43;;;;;;;10.29;74.76;93599.47;4169845;28;20175;-53
2022/11/18 02:42:57;;;;;;;27.73;15.57;;;;;;;10.27;74.93;93604.09;4163259;28;20136;-55
2022/11/18 02:45:03;;;;;;;21.25;14.95;;;;;;;10.27;74.64;93598.84;4149794;28;20380;-54
2022/11/18 02:47:07;;;;;;;21.17;14.45;;;;;;;10.26;75.06;93592.81;4154973;28;20529;-52
2022/11/18 02:49:14;;;;;;;21.45;13.38;;;;;;;10.27;74.52;93598.84;4159491;28;20057;-54
2022/11/18 02:51:21;;;;;;;17.52;12.93;;;;;;;10.20;74.16;93596.97;4170846;28;20493;-55
2022/11/18 02:53:24;;;;;;;27.88;15.43;;;;;;;10.02;74.62;93596.53;4169782;28;20514;-52
2022/11/18 02:55:28;;;;;;;22.10;14.67;;;;;;;9.97;75.63;93607.53;4169778;28;20549;-53
2022/11/18 02:57:29;;;;;;;;;;;;;;;9.90;75.83;93603.22;4170302;28;20298;-55
2022/11/18 02:59:31;;;;;;;21.15;15.15;;;;;;;9.91;75.94;93608.25;4154698;28;19935;-53
2022/11/18 03:01:34;;;;;;;31.88;24.83;;;;;;;9.92;75.61;93612.53;4149801;28;20229;-53
2022/11/18 03:03:36;;;;;;;24.50;17.92;;;;;;;9.92;74.95;93609.09;4163310;28;20128;-53
2022/11/18 03:05:47;;;;;;;25.20;18.75;;;;;;;9.91;75.31;93610.88;4196208;28;20150;-51
2022/11/18 03:07:54;;;;;;;22.27;16.77;;;;;;;9.92;74.97;93612.53;4213563;28;20058;-51
2022/11/18 03:09:57;;;;;;;25.15;17.83;;;;;;;9.91;75.36;93610.88;4210237;28;20128;-52
2022/11/18 03:12:29;;;;;;;34.63;30.67;;;;;;;9.88;74.68;93598.19;4220858;28;20051;-52
2022/11/18 03:14:39;;;;;;;29.77;24.42;;;;;;;9.87;75.33;93606.19;4209141;28;20347;-53
2022/11/18 03:17:05;;;;;;;24.65;19.25;;;;;;;9.83;74.93;93603.97;4199622;28;20570;-52
2022/11/18 03:19:09;;;;;;;25.05;18.20;;;;;;;9.83;75.21;93608.38;4212156;28;20197;-51
2022/11/18 03:21:28;;;;;;;24.23;17.75;;;;;;;9.63;75.51;93610.69;4210135;28;20097;-51
2022/11/18 03:23:50;;;;;;;22.77;15.30;;;;;;;9.29;76.92;93601.59;4201443;28;20101;-54
2022/11/18 03:26:00;;;;;;;24.20;16.52;;;;;;;9.21;77.51;93599.03;4210063;28;20266;-51
2022/11/18 03:28:13;;;;;;;24.58;16.83;;;;;;;9.25;77.06;93602.94;4195784;28;20121;-49
2022/11/18 03:30:18;;;;;;;27.63;18.60;;;;;;;9.26;76.51;93603.72;4198836;28;20447;-52
2022/11/18 03:32:26;;;;;;;28.15;18.50;;;;;;;9.24;77.62;93601.28;4193228;28;20040;-52
2022/11/18 03:34:30;;;;;;;24.50;17.65;;;;;;;9.35;77.76;93610.50;4210462;28;20052;-52
2022/11/18 03:36:36;;;;;;;30.50;19.33;;;;;;;9.44;77.00;93604.19;4195127;28;20090;-54
2022/11/18 03:38:46;;;;;;;31.60;19.55;;;;;;;9.40;76.60;93606.38;4203483;28;20049;-54
2022/11/18 03:40:52;;;;;;;29.10;20.50;;;;;;;9.24;76.94;93603.91;4204288;28;20052;-53
2022/11/18 03:43:10;;;;;;;33.72;21.00;;;;;;;9.25;77.55;93610.78;4211800;28;20075;-51
2022/11/18 03:45:17;;;;;;;31.73;19.90;;;;;;;9.28;77.82;93604.38;4200008;28;20052;-52
2022/11/18 03:47:24;;;;;;;29.73;20.73;;;;;;;9.39;77.81;93602.13;4196742;28;20135;-53
2022/11/18 03:49:37;;;;;;;28.35;19.35;;;;;;;9.49;76.90;93590.63;4216705;28;20386;-52
2022/11/18 03:51:47;;;;;;;29.05;19.08;;;;;;;9.57;76.49;93591.34;4224864;28;20094;-55
2022/11/18 03:54:12;;;;;;;25.80;19.52;;;;;;;9.64;75.92;93596.66;4221748;28;20056;-52
2022/11/18 03:56:17;;;;;;;27.45;19.30;;;;;;;9.65;76.35;93582.56;4226295;28;20086;-54
2022/11/18 03:58:29;;;;;;;26.30;19.20;;;;;;;9.63;75.83;93587.97;4223956;28;20456;-53
2022/11/18 04:00:42;;;;;;;25.35;17.65;;;;;;;9.65;76.14;93579.97;4217766;28;20116;-55
2022/11/18 04:02:46;;;;;;;31.30;20.20;;;;;;;9.65;75.26;93585.19;4200338;28;20051;-54
2022/11/18 04:04:54;;;;;;;32.55;19.90;;;;;;;9.65;75.90;93582.56;4208154;28;20086;-49
2022/11/18 04:07:11;;;;;;;37.42;21.50;;;;;;;9.66;75.76;93581.59;4214750;28;20098;-54
2022/11/18 04:09:19;;;;;;;34.80;22.05;;;;;;;9.64;75.53;93591.44;4224718;28;20090;-52
2022/11/18 04:13:46;;;;;;;35.65;22.58;;;;;;;9.65;75.24;93590.41;4227272;28;20086;-54
2022/11/18 04:15:48;;;;;;;38.17;23.48;;;;;;;9.67;76.17;93585.03;4225619;28;20158;-52
2022/11/18 04:17:50;;;;;;;38.00;23.75;;;;;;;9.69;75.99;93586.44;4227100;28;20052;-53
2022/11/18 04:19:51;;;;;;;39.13;22.95;;;;;;;9.69;76.24;93590.88;4226118;28;20047;-55
2022/11/18 04:21:53;;;;;;;47.58;25.10;;;;;;;9.68;76.37;93590.06;4221622;28;20057;-55
2022/11/18 04:23:54;;;;;;;43.85;25.10;;;;;;;9.70;75.73;93588.09;4225649;28;20477;-55
2022/11/18 04:25:56;;;;;;;36.30;24.33;;;;;;;9.60;75.70;93590.16;4227515;28;20388;-53
2022/11/18 04:27:58;;;;;;;39.33;23.92;;;;;;;9.53;76.69;93591.84;4215190;28;20535;-52
2022/11/18 04:29:59;;;;;;;41.38;24.17;;;;;;;9.53;76.65;93591.84;4225190;28;20454;-51
2022/11/18 04:32:02;;;;;;;42.05;25.40;;;;;;;9.50;76.65;93597.44;4227194;28;20110;-53
2022/11/18 04:34:03;;;;;;;43.92;24.98;;;;;;;9.41;76.71;93592.31;4217974;28;20131;-54
2022/11/18 04:36:05;;;;;;;43.50;24.63;;;;;;;9.05;77.51;93594.75;4222961;28;20082;-51
2022/11/18 04:38:07;;;;;;;42.40;27.10;;;;;;;8.82;78.15;93610.47;4210922;28;20075;-54
2022/11/18 04:40:09;;;;;;;39.05;26.73;;;;;;;8.81;79.22;93616.66;4226362;28;20043;-51
2022/11/18 04:42:11;;;;;;;41.72;27.50;;;;;;;8.88;78.17;93620.19;4213740;28;20074;-55
2022/11/18 04:44:12;;;;;;;42.20;28.35;;;;;;;8.72;78.48;93615.91;4227247;28;20128;-51
2022/11/18 04:46:14;;;;;;;49.08;30.25;;;;;;;8.70;78.88;93623.09;4219237;28;20546;-54
2022/11/18 04:48:18;;;;;;;46.70;29.70;;;;;;;8.73;78.79;93628.00;4199272;28;20056;-52
2022/11/18 04:50:19;;;;;;;63.85;32.58;;;;;;;8.63;78.46;93627.41;4207078;28;20477;-52
2022/11/18 04:52:21;;;;;;;56.60;32.25;;;;;;;8.43;80.02;93621.81;4204893;28;20182;-51
2022/11/18 04:54:23;;;;;;;53.55;33.58;;;;;;;8.34;80.39;93612.38;4194195;28;20163;-51
2022/11/18 04:56:25;;;;;;;73.68;36.47;;;;;;;8.30;80.54;93622.38;4194894;28;20132;-53
2022/11/18 04:58:27;;;;;;;54.97;33.75;;;;;;;8.38;81.63;93629.31;4195141;28;20425;-53
2022/11/18 05:00:29;;;;;;;61.25;34.95;;;;;;;8.52;81.49;93623.41;4196427;28;20082;-52
2022/11/18 05:02:30;;;;;;;58.00;34.65;;;;;;;8.61;81.39;93621.56;4206846;28;20062;-54
2022/11/18 05:04:33;;;;;;;60.95;35.03;;;;;;;8.69;81.03;93631.09;4218557;28;20111;-54
2022/11/18 05:06:35;;;;;;;58.80;35.00;;;;;;;8.78;80.13;93624.88;4193616;28;20087;-54
2022/11/18 05:08:36;;;;;;;63.97;31.58;;;;;;;8.87;79.86;93618.59;4193083;28;20048;-52
2022/11/18 05:10:38;;;;;;;62.10;33.35;;;;;;;8.90;80.13;93613.00;4196443;28;20053;-55
2022/11/18 05:12:49;;;;;;;47.20;30.55;;;;;;;8.93;79.75;93607.44;4198512;28;20048;-52
2022/11/18 05:14:50;;;;;;;47.92;30.95;;;;;;;9.01;79.33;93612.59;4201457;28;20096;-57
2022/11/18 05:16:53;;;;;;;51.08;29.02;;;;;;;9.12;78.99;93618.38;4206368;28;20105;-53
2022/11/18 05:18:55;;;;;;;51.75;29.55;;;;;;;9.17;79.21;93613.44;4209700;28;20460;-54
2022/11/18 05:20:56;;;;;;;40.78;26.48;;;;;;;9.27;79.01;93621.84;4209442;28;20043;-52
2022/11/18 05:22:58;;;;;;;44.47;27.65;;;;;;;9.35;78.96;93616.53;4198417;28;20474;-55
2022/11/18 05:24:59;;;;;;;44.10;28.48;;;;;;;9.41;78.57;93631.50;4207258;28;20509;-55
2022/11/18 05:27:01;;;;;;;47.33;27.70;;;;;;;9.36;78.31;93614.75;4193687;28;20060;-54
2022/11/18 05:29:03;;;;;;;41.58;26.77;;;;;;;9.31;78.29;93622.28;4200978;28;20135;-53
2022/11/18 05:31:08;;;;;;;37.90;26.05;;;;;;;9.28;78.67;93633.13;4209864;28;20143;-55
2022/11/18 05:33:10;;;;;;;43.97;24.55;;;;;;;9.31;78.59;93619.69;4209509;28;20043;-52
2022/11/18 05:35:11;;;;;;;37.88;24.52;;;;;;;9.33;77.90;93630.78;4194668;28;20150;-52
2022/11/18 05:37:13;;;;;;;39.50;25.45;;;;;;;9.31;77.64;93632.75;4202469;28;20048;-55
2022/11/18 05:39:15;;;;;;;32.70;24.13;;;;;;;9.33;77.36;93630.78;4198537;28;20409;-56
2022/11/18 05:43:45;;;;;;;31.02;22.50;;;;;;;9.38;77.64;93625.84;4184176;28;20044;-55
2022/11/18 05:45:49;;;;;;;29.70;22.30;;;;;;;9.42;77.70;93627.91;4197076;28;20439;-55
2022/11/18 05:48:00;;;;;;;35.80;24.33;;;;;;;9.41;77.80;93620.25;4203038;28;20076;-56
2022/11/18 05:50:01;;;;;;;48.10;25.55;;;;;;;9.37;77.47;93622.41;4205502;28;20058;-52
2022/11/18 05:52:03;;;;;;;39.13;25.48;;;;;;;9.33;77.31;93623.75;4196553;28;20052;-54
2022/11/18 05:54:07;;;;;;;41.70;25.17;;;;;;;9.23;78.28;93624.00;4203407;28;20514;-57
2022/11/18 05:56:24;;;;;;;34.63;23.90;;;;;;;9.24;78.15;93624.81;4193617;28;20501;-51
2022/11/18 05:58:27;;;;;;;36.38;24.48;;;;;;;9.31;78.40;93620.50;4224388;28;20043;-55
2022/11/18 06:00:30;;;;;;;33.53;23.87;;;;;;;9.31;77.97;93617.88;4204725;28;20045;-52
2022/11/18 06:02:32;;;;;;;37.17;24.67;;;;;;;9.33;78.09;93618.50;4199956;28;20056;-52
2022/11/18 06:04:38;;;;;;;36.80;24.92;;;;;;;9.38;78.09;93621.41;4214534;28;20127;-54
2022/11/18 06:06:41;;;;;;;60.80;24.05;;;;;;;9.43;78.51;93616.47;4199863;28;20056;-52
2022/11/18 06:08:51;;;;;;;41.08;24.70;;;;;;;9.43;78.55;93624.31;4207156;28;20072;-54
2022/11/18 06:10:52;;;;;;;49.45;24.67;;;;;;;9.47;78.69;93613.50;4193137;28;20349;-54
2022/11/18 06:12:56;;;;;;;34.00;22.60;;;;;;;9.49;78.37;93624.59;4200150;28;20082;-57
2022/11/18 06:15:03;;;;;;;64.50;23.58;;;;;;;9.46;77.83;93617.91;4199486;28;20083;-54
2022/11/18 06:17:07;;;;;;;59.58;24.15;;;;;;;9.06;78.70;93629.56;4207152;28;20519;-53
2022/11/18 06:19:08;;;;;;;61.70;26.90;;;;;;;8.87;80.02;93623.81;4199075;28;20086;-58
2022/11/18 06:21:10;;;;;;;71.93;28.27;;;;;;;8.64;80.89;93625.59;4201206;28;20047;-53
2022/11/18 06:23:12;;;;;;;46.55;25.85;;;;;;;8.69;82.52;93623.28;4204116;28;20062;-54
2022/11/18 06:25:14;;;;;;;54.60;25.30;;;;;;;8.87;82.56;93615.16;4212197;28;20059;-54
2022/11/18 06:27:16;;;;;;;68.43;24.02;;;;;;;8.73;81.65;93612.34;4226985;28;20134;-53
2022/11/18 06:29:19;;;;;;;63.20;25.17;;;;;;;8.75;82.79;93614.75;4226478;28;20047;-56
2022/11/18 06:31:28;;;;;;;49.08;25.50;;;;;;;8.87;82.92;93612.56;4226450;28;20052;-55
2022/11/18 06:33:29;;;;;;;59.25;26.50;;;;;;;8.92;82.63;93620.66;4226076;28;20046;-55
2022/11/18 06:35:31;;;;;;;60.00;26.38;;;;;;;8.83;81.76;93622.53;4218411;28;20044;-54
2022/11/18 06:37:34;;;;;;;51.30;25.35;;;;;;;8.89;82.41;93608.78;4208533;28;20082;-54
2022/11/18 06:39:36;;;;;;;72.95;26.05;;;;;;;8.92;82.43;93605.81;4226690;28;20079;-56
2022/11/18 06:41:38;;;;;;;66.47;26.27;;;;;;;8.70;82.46;93619.69;4220650;28;20487;-53
2022/11/18 06:43:42;;;;;;;71.95;24.58;;;;;;;8.52;82.75;93618.19;4212698;28;20405;-54
2022/11/18 06:46:54;;;;;;;51.80;24.73;;;;;;;8.57;83.60;93623.69;4196505;28;20040;-54
2022/11/18 06:48:09;;;;;;;53.58;24.65;;;;;;;8.55;83.52;93620.44;4196285;28;20362;-52
2022/11/18 06:50:12;;;;;;;50.75;26.75;;;;;;;8.70;85.00;93614.47;4195998;28;20054;-53
2022/11/18 06:52:13;;;;;;;67.35;26.08;;;;;;;8.66;83.77;93616.59;4199660;28;20079;-51
2022/11/18 06:54:15;;;;;;;44.30;25.92;;;;;;;8.74;83.94;93616.56;4211706;28;20044;-54
2022/11/18 06:56:18;;;;;;;52.13;25.95;;;;;;;8.91;84.43;93619.06;4184092;28;20521;-49
2022/11/18 06:58:20;;;;;;;60.17;27.33;;;;;;;9.07;83.85;93618.91;4228015;27;20492;-52
2022/11/18 07:00:22;;;;;;;46.45;25.35;;;;;;;9.23;83.14;93607.53;4198314;28;20281;-53
2022/11/18 07:02:23;;;;;;;40.25;26.15;;;;;;;9.34;82.77;93606.28;4217951;28;20477;-52
2022/11/18 07:04:25;;;;;;;40.35;24.63;;;;;;;9.45;82.37;93608.44;4224879;28;20416;-51
2022/11/18 07:06:29;;;;;;;40.55;22.40;;;;;;;9.56;81.80;93612.41;4219245;28;20081;-56
2022/11/18 07:08:30;;;;;;;;;;;;;;;9.62;81.17;93606.47;4228118;28;20130;-57
2022/11/18 07:10:32;;;;;;;45.58;27.55;;;;;;;9.75;81.07;93618.94;4203341;28;20030;-55
2022/11/18 07:12:34;;;;;;;45.63;26.40;;;;;;;9.90;80.33;93611.88;4203655;28;20134;-57
2022/11/18 07:14:35;;;;;;;44.67;24.38;;;;;;;9.96;80.47;93615.56;4221374;27;20599;-53
2022/11/18 07:16:37;;;;;;;43.08;23.02;;;;;;;9.93;79.48;93616.75;4212556;28;20090;-56
2022/11/18 07:18:43;;;;;;;41.92;22.65;;;;;;;9.94;79.68;93601.88;4198290;28;20052;-56
2022/11/18 07:20:44;;;;;;;42.10;23.67;;;;;;;9.96;79.82;93592.84;4212535;28;20127;-53
2022/11/18 07:22:46;;;;;;;46.67;23.88;;;;;;;9.93;79.76;93581.94;4202904;28;20049;-53
2022/11/18 07:24:48;;;;;;;42.53;22.92;;;;;;;9.93;80.00;93579.31;4196639;28;20075;-57
2022/11/18 07:26:52;;;;;;;37.85;21.58;;;;;;;9.93;80.11;93582.72;4209265;28;20117;-55
2022/11/18 07:28:53;;;;;;;45.85;21.95;;;;;;;9.97;79.50;93580.56;4196522;28;20087;-57
2022/11/18 07:31:06;;;;;;;37.85;21.20;;;;;;;9.91;79.79;93589.94;4205979;28;20208;-56
2022/11/18 07:33:08;;;;;;;47.58;22.35;;;;;;;9.87;79.92;93580.03;4211789;28;20120;-51
2022/11/18 07:35:10;;;;;;;52.85;24.00;;;;;;;9.66;80.98;93578.97;4206865;28;20052;-51
2022/11/18 07:37:11;;;;;;;48.50;23.55;;;;;;;9.37;82.75;93577.97;4195139;28;20516;-53
2022/11/18 07:39:13;;;;;;;53.10;23.38;;;;;;;9.39;83.30;93575.19;4198903;28;20075;-53
2022/11/18 07:41:17;;;;;;;45.42;24.60;;;;;;;9.18;84.35;93571.47;4189170;28;20722;-50
2022/11/18 07:43:18;;;;;;;;;;;;;;;9.36;85.34;93580.78;4210837;28;20134;-51
2022/11/18 07:45:20;;;;;;;81.32;27.00;;;;;;;9.02;85.55;93563.78;4221084;28;19963;-54
2022/11/18 07:47:22;;;;;;;54.08;26.10;;;;;;;9.13;86.15;93563.34;4220847;28;20044;-58
2022/11/18 07:49:23;;;;;;;64.50;23.92;;;;;;;9.05;86.28;93566.03;4215005;28;20082;-54
2022/11/18 07:51:27;;;;;;;57.40;26.10;;;;;;;9.20;87.00;93581.72;4221454;28;20055;-52
2022/11/18 07:53:29;;;;;;;;;;;;;;;9.26;85.88;93591.47;4218649;28;20049;-55
2022/11/18 07:55:31;;;;;;;55.08;26.10;;;;;;;9.36;86.99;93591.22;4215274;28;20644;-56
2022/11/18 07:57:33;;;;;;;69.20;27.90;;;;;;;9.24;86.67;93577.78;4212665;28;20055;-54
2022/11/18 07:59:35;;;;;;;62.72;24.65;;;;;;;9.34;87.03;93588.78;4225054;27;20052;-53
2022/11/18 08:01:37;;;;;;;56.72;25.08;;;;;;;9.46;86.65;93598.78;4211008;28;20075;-51
2022/11/18 08:03:39;;;;;;;63.15;26.08;;;;;;;9.41;86.17;93609.78;4226912;28;20052;-56
2022/11/18 08:05:40;;;;;;;50.60;24.70;;;;;;;9.48;86.46;93630.81;4214850;28;20052;-51
2022/11/18 08:07:42;;;;;;;53.38;25.63;;;;;;;9.50;85.44;93620.97;4223101;28;20047;-53
2022/11/18 08:09:44;;;;;;;55.80;25.65;;;;;;;9.62;86.12;93628.19;4207296;28;20140;-55
2022/11/18 08:11:46;;;;;;;51.92;25.65;;;;;;;9.75;86.03;93632.00;4211625;28;20052;-54
2022/11/18 08:13:48;;;;;;;52.17;27.40;;;;;;;9.86;85.38;93618.47;4198030;28;20059;-53
2022/11/18 08:15:49;;;;;;;57.28;26.50;;;;;;;9.91;84.27;93621.34;4207516;28;20106;-54
2022/11/18 08:17:51;;;;;;;59.22;27.83;;;;;;;9.95;84.37;93600.88;4200823;28;20515;-54
2022/11/18 08:19:53;;;;;;;57.88;28.35;;;;;;;9.98;83.76;93608.34;4219852;28;20048;-52
2022/11/18 08:21:55;;;;;;;60.05;28.23;;;;;;;10.02;83.69;93601.75;4222486;28;20673;-52
2022/11/18 08:23:57;;;;;;;56.38;27.98;;;;;;;10.05;83.25;93604.84;4225047;28;20058;-50
2022/11/18 08:26:07;;;;;;;60.03;27.88;;;;;;;9.97;83.07;93598.88;4227409;28;20101;-57
2022/11/18 08:28:10;;;;;;;59.47;26.77;;;;;;;9.68;84.52;93589.25;4226431;28;20077;-51
2022/11/18 08:30:12;;;;;;;61.35;29.50;;;;;;;9.73;84.48;93600.78;4213671;28;20135;-58
2022/11/18 08:32:13;;;;;;;64.07;29.20;;;;;;;9.80;84.77;93586.00;4220491;28;20052;-53
2022/11/18 08:34:15;;;;;;;56.25;28.42;;;;;;;9.72;84.48;93578.25;4221006;28;20086;-52
2022/11/18 08:36:20;;;;;;;55.33;26.33;;;;;;;9.74;84.39;93576.25;4225552;28;20051;-54
2022/11/18 08:38:22;;;;;;;64.05;29.25;;;;;;;9.86;84.97;93578.44;4225012;28;20059;-54
2022/11/18 08:40:24;;;;;;;67.53;29.77;;;;;;;10.09;85.03;93559.97;4226861;28;20100;-55
2022/11/18 08:42:26;;;;;;;60.67;29.13;;;;;;;10.25;83.76;93557.16;4211627;28;20051;-53
2022/11/18 08:44:35;;;;;;;57.65;28.73;;;;;;;10.41;83.73;93553.50;4202708;28;20087;-54
2022/11/18 08:46:36;;;;;;;53.40;27.52;;;;;;;10.31;82.60;93561.69;4204840;28;20082;-53
2022/11/18 08:48:38;;;;;;;56.97;27.10;;;;;;;10.32;82.79;93570.34;4197916;28;20129;-52
2022/11/18 08:50:40;;;;;;;63.17;27.70;;;;;;;10.30;82.16;93538.28;4195013;28;20072;-56
2022/11/18 08:52:42;;;;;;;56.45;27.10;;;;;;;10.16;82.67;93534.72;4193364;28;20121;-50
2022/11/18 08:54:44;;;;;;;65.00;27.00;;;;;;;10.34;83.74;93544.78;4194117;28;20136;-53
2022/11/18 08:56:45;;;;;;;51.58;25.52;;;;;;;10.56;83.51;93527.25;4196704;28;20048;-55
2022/11/18 08:58:47;;;;;;;52.38;26.58;;;;;;;10.74;83.07;93527.63;4207008;28;20109;-51
2022/11/18 09:00:49;;;;;;;61.42;26.88;;;;;;;10.75;81.06;93512.72;4196367;28;20045;-52
2022/11/18 09:02:51;;;;;;;52.90;26.92;;;;;;;10.64;81.53;93521.91;4203207;28;20094;-57
2022/11/18 09:04:53;;;;;;;52.45;27.30;;;;;;;10.77;81.77;93521.22;4216170;28;20107;-51
2022/11/18 09:06:54;;;;;;;56.25;27.98;;;;;;;10.87;81.10;93508.59;4210605;28;20048;-50
2022/11/18 09:08:56;;;;;;;54.28;27.15;;;;;;;11.11;80.71;93504.75;4221568;28;20365;-53
2022/11/18 09:11:10;;;;;;;56.28;26.83;;;;;;;11.26;79.67;93496.78;4204311;28;20048;-53
2022/11/18 09:13:11;;;;;;;46.03;25.75;;;;;;;11.52;79.50;93514.47;4226934;28;20096;-54
2022/11/18 09:15:34;;;;;;;63.22;27.15;;;;;;;11.44;78.64;93510.19;4226843;28;20125;-51
2022/11/18 09:17:36;;;;;;;52.83;26.27;;;;;;;11.41;79.18;93518.44;4221030;28;20584;-53
2022/11/18 09:19:37;;;;;;;56.20;25.75;;;;;;;11.55;79.04;93503.59;4220008;28;20453;-54
2022/11/18 09:21:48;;;;;;;54.97;26.90;;;;;;;11.53;78.20;93502.97;4226537;28;20062;-53
2022/11/18 09:23:50;;;;;;;49.08;24.90;;;;;;;11.66;77.90;93497.00;4225685;28;20051;-53
2022/11/18 09:25:58;;;;;;;46.72;25.13;;;;;;;11.65;77.61;93503.22;4227378;28;20806;-56
2022/11/18 09:28:00;;;;;;;47.13;25.48;;;;;;;11.76;77.77;93491.38;4225633;28;20465;-55
2022/11/18 09:30:03;;;;;;;46.45;25.50;;;;;;;12.05;77.91;93492.94;4221163;28;20109;-53
2022/11/18 09:32:04;;;;;;;48.45;25.38;;;;;;;12.00;75.83;93487.44;4193525;28;20097;-57
2022/11/18 09:34:09;;;;;;;50.60;26.55;;;;;;;11.64;77.43;93480.63;4213354;28;20086;-52
2022/11/18 09:36:21;;;;;;;43.92;23.60;;;;;;;11.88;77.69;93492.47;4199332;28;20044;-54
2022/11/18 09:38:23;;;;;;;42.97;23.63;;;;;;;12.23;76.83;93476.59;4197882;28;20369;-54
2022/11/18 09:40:25;;;;;;;37.35;20.02;;;;;;;12.44;75.06;93467.75;4210604;28;20076;-55
2022/11/18 09:42:46;;;;;;;35.50;18.70;;;;;;;12.42;74.01;93457.44;4200017;28;20234;-55
2022/11/18 09:45:06;;;;;;;32.38;18.20;;;;;;;12.68;74.34;93445.34;4194178;28;20056;-53
2022/11/18 09:47:17;;;;;;;33.92;16.77;;;;;;;13.02;73.04;93435.63;4209279;28;20052;-56
2022/11/18 09:49:29;;;;;;;40.08;20.15;;;;;;;13.36;72.32;93431.09;4204105;28;20429;-50
2022/11/18 09:51:38;;;;;;;35.13;20.17;;;;;;;13.44;70.60;93425.63;4225712;27;20060;-53
2022/11/18 09:53:43;;;;;;;30.42;18.63;;;;;;;13.22;71.22;93428.47;4205794;28;20390;-53
2022/11/18 09:55:46;;;;;;;28.08;17.20;;;;;;;13.35;71.26;93440.00;4210448;28;20047;-51
2022/11/18 09:57:52;;;;;;;36.90;19.95;;;;;;;13.22;69.88;93432.94;4199147;28;20045;-53
2022/11/18 09:59:54;;;;;;;28.58;17.55;;;;;;;12.79;71.12;93420.25;4192544;28;20383;-55
2022/11/18 10:02:01;;;;;;;31.20;17.42;;;;;;;12.96;71.23;93410.13;4193050;28;20056;-55
2022/11/18 10:04:03;;;;;;;35.90;20.13;;;;;;;13.20;71.22;93416.56;4197862;28;20043;-55
2022/11/18 10:06:08;;;;;;;33.92;18.95;;;;;;;13.43;69.89;93424.81;4212719;28;20127;-52
2022/11/18 10:08:32;;;;;;;34.88;20.52;;;;;;;13.50;68.60;93424.78;4218684;28;20048;-53